<?xml version='1.0' encoding='UTF-8'?><gpx version="1.1" creator="JPX - https://github.com/jenetics/jpx" xmlns="http://www.topografix.com/GPX/1/1"><trk><trkseg><trkpt lat="41.975607817199375" lon="12.16032735068472"><ele>128.0</ele><time>2026-04-11T14:29:27Z</time></trkpt><trkpt lat="41.97567371217892" lon="12.160380700486307"><ele>127.99999999999999</ele><time>2026-04-11T14:30:17.999Z</time></trkpt><trkpt lat="41.975723542027296" lon="12.16029079119979"><ele>128.0</ele><time>2026-04-11T14:30:22.999Z</time></trkpt><trkpt lat="41.97573660156461" lon="12.160202796740249"><ele>128.0</ele><time>2026-04-11T14:30:30Z</time></trkpt><trkpt lat="41.97575872946244" lon="12.160102518440862"><ele>127.99999999999999</ele><time>2026-04-11T14:30:35Z</time></trkpt><trkpt lat="41.97576181646976" lon="12.16001716572492"><ele>128.0</ele><time>2026-04-11T14:30:39Z</time></trkpt><trkpt lat="41.97576516172938" lon="12.159927437107795"><ele>128.0</ele><time>2026-04-11T14:30:44Z</time></trkpt><trkpt lat="41.9757864017497" lon="12.159826717600797"><ele>128.14285714285714</ele><time>2026-04-11T14:30:49Z</time></trkpt><trkpt lat="41.97578691127913" lon="12.159733634408074"><ele>128.28571428571428</ele><time>2026-04-11T14:30:54Z</time></trkpt><trkpt lat="41.97585534677468" lon="12.159692929099554"><ele>128.42857142857142</ele><time>2026-04-11T14:30:59Z</time></trkpt><trkpt lat="41.97593070386601" lon="12.159692035974599"><ele>128.57142857142856</ele><time>2026-04-11T14:31:02Z</time></trkpt><trkpt lat="41.97598420349972" lon="12.159769242907956"><ele>128.71428571428572</ele><time>2026-04-11T14:31:05Z</time></trkpt><trkpt lat="41.97599694837022" lon="12.15985257228479"><ele>128.85714285714283</ele><time>2026-04-11T14:31:09Z</time></trkpt><trkpt lat="41.97596025459664" lon="12.159928759388452"><ele>129.0</ele><time>2026-04-11T14:31:14Z</time></trkpt><trkpt lat="41.97590815751553" lon="12.159990721219533"><ele>128.99999999999997</ele><time>2026-04-11T14:31:18Z</time></trkpt><trkpt lat="41.975856629736406" lon="12.160058221287054"><ele>129.0</ele><time>2026-04-11T14:31:22Z</time></trkpt><trkpt lat="41.97583402157644" lon="12.160147741319282"><ele>129.0</ele><time>2026-04-11T14:31:26Z</time></trkpt><trkpt lat="41.97586629510303" lon="12.160244956426551"><ele>129.0</ele><time>2026-04-11T14:31:30Z</time></trkpt><trkpt lat="41.975888791730306" lon="12.16034277532349"><ele>129.0</ele><time>2026-04-11T14:31:34Z</time></trkpt><trkpt lat="41.97586470103832" lon="12.160434110482194"><ele>128.99999999999997</ele><time>2026-04-11T14:31:37.999Z</time></trkpt><trkpt lat="41.975845886394346" lon="12.160524108749064"><ele>129.0</ele><time>2026-04-11T14:32:05.999Z</time></trkpt><trkpt lat="41.975826992540824" lon="12.160619665110653"><ele>129.0</ele><time>2026-04-11T14:32:12.999Z</time></trkpt><trkpt lat="41.97580644046729" lon="12.160708181620233"><ele>129.0</ele><time>2026-04-11T14:32:16.999Z</time></trkpt><trkpt lat="41.97584310472421" lon="12.1607802355848"><ele>129.0</ele><time>2026-04-11T14:32:20.999Z</time></trkpt><trkpt lat="41.97591968438102" lon="12.160768070252958"><ele>129.0</ele><time>2026-04-11T14:32:25.999Z</time></trkpt><trkpt lat="41.9759379571365" lon="12.160643382492804"><ele>129.0</ele><time>2026-04-11T14:32:28.999Z</time></trkpt><trkpt lat="41.97597349136745" lon="12.16053716521651"><ele>129.0</ele><time>2026-04-11T14:32:31.999Z</time></trkpt><trkpt lat="41.976028662322136" lon="12.160467719802945"><ele>128.99999999999997</ele><time>2026-04-11T14:32:35Z</time></trkpt><trkpt lat="41.97606556384733" lon="12.160367808613154"><ele>129.0</ele><time>2026-04-11T14:32:39Z</time></trkpt><trkpt lat="41.97609454803375" lon="12.160279617866514"><ele>129.0</ele><time>2026-04-11T14:32:43Z</time></trkpt><trkpt lat="41.97611352168018" lon="12.160198635694403"><ele>129.0</ele><time>2026-04-11T14:32:46Z</time></trkpt><trkpt lat="41.97612163896837" lon="12.160112800656599"><ele>129.0</ele><time>2026-04-11T14:32:50Z</time></trkpt><trkpt lat="41.976140135146544" lon="12.16001775275456"><ele>128.99999999999997</ele><time>2026-04-11T14:32:54Z</time></trkpt><trkpt lat="41.976177964906206" lon="12.159927205518409"><ele>129.0</ele><time>2026-04-11T14:32:58Z</time></trkpt><trkpt lat="41.97624568972218" lon="12.159945777318299"><ele>128.99999999999997</ele><time>2026-04-11T14:33:02Z</time></trkpt><trkpt lat="41.97624810373764" lon="12.16003865156095"><ele>129.0</ele><time>2026-04-11T14:33:06Z</time></trkpt><trkpt lat="41.976226043049934" lon="12.160131183609268"><ele>129.0</ele><time>2026-04-11T14:33:25Z</time></trkpt><trkpt lat="41.976213076326424" lon="12.160228215092141"><ele>129.0</ele><time>2026-04-11T14:33:29Z</time></trkpt><trkpt lat="41.976239650913875" lon="12.16032064790522"><ele>129.0</ele><time>2026-04-11T14:33:33Z</time></trkpt><trkpt lat="41.97631240935187" lon="12.160271737512705"><ele>128.99999999999997</ele><time>2026-04-11T14:33:37Z</time></trkpt><trkpt lat="41.97634291470601" lon="12.160184551840452"><ele>129.0</ele><time>2026-04-11T14:33:41Z</time></trkpt><trkpt lat="41.97638783246769" lon="12.160120085665179"><ele>128.99999999999997</ele><time>2026-04-11T14:33:44Z</time></trkpt><trkpt lat="41.97640771789159" lon="12.160035890308691"><ele>129.0</ele><time>2026-04-11T14:33:47.999Z</time></trkpt><trkpt lat="41.97644609899683" lon="12.15995567528655"><ele>129.0</ele><time>2026-04-11T14:33:51.999Z</time></trkpt><trkpt lat="41.976515906671125" lon="12.159957246971274"><ele>129.0</ele><time>2026-04-11T14:33:55.999Z</time></trkpt><trkpt lat="41.97651834693228" lon="12.16005737035282"><ele>129.0</ele><time>2026-04-11T14:33:59.999Z</time></trkpt><trkpt lat="41.976480167884326" lon="12.16013703674795"><ele>128.99999999999997</ele><time>2026-04-11T14:34:03.999Z</time></trkpt><trkpt lat="41.97645105460785" lon="12.16023122315508"><ele>129.0</ele><time>2026-04-11T14:34:07.999Z</time></trkpt><trkpt lat="41.9764090463015" lon="12.160305916470051"><ele>128.99999999999997</ele><time>2026-04-11T14:34:11.999Z</time></trkpt><trkpt lat="41.9763738043021" lon="12.160387835927917"><ele>129.0</ele><time>2026-04-11T14:34:15.999Z</time></trkpt><trkpt lat="41.97630883837637" lon="12.160420697921616"><ele>129.0</ele><time>2026-04-11T14:34:20.999Z</time></trkpt><trkpt lat="41.97624723911785" lon="12.160467600515464"><ele>129.0</ele><time>2026-04-11T14:34:27.999Z</time></trkpt><trkpt lat="41.976319318086446" lon="12.160425940402304"><ele>129.0</ele><time>2026-04-11T14:34:34.999Z</time></trkpt><trkpt lat="41.97637763965081" lon="12.160381475777118"><ele>128.99999999999997</ele><time>2026-04-11T14:34:40Z</time></trkpt><trkpt lat="41.97632103398038" lon="12.160436292066747"><ele>129.0</ele><time>2026-04-11T14:34:45Z</time></trkpt><trkpt lat="41.97625738432252" lon="12.160461075362477"><ele>128.99999999999997</ele><time>2026-04-11T14:34:49Z</time></trkpt><trkpt lat="41.9762049886572" lon="12.16053577340566"><ele>129.0</ele><time>2026-04-11T14:34:54Z</time></trkpt><trkpt lat="41.97622093286422" lon="12.16063096680319"><ele>129.0</ele><time>2026-04-11T14:35:02Z</time></trkpt><trkpt lat="41.976279960874905" lon="12.160688744098968"><ele>129.0</ele><time>2026-04-11T14:35:07Z</time></trkpt><trkpt lat="41.97634052747681" lon="12.160738057644798"><ele>129.0</ele><time>2026-04-11T14:35:12Z</time></trkpt><trkpt lat="41.976383366129035" lon="12.160804849944407"><ele>128.99999999999997</ele><time>2026-04-11T14:35:17Z</time></trkpt><trkpt lat="41.97632583546682" lon="12.16085135099575"><ele>129.0</ele><time>2026-04-11T14:35:22Z</time></trkpt><trkpt lat="41.976257204314294" lon="12.160838541164674"><ele>128.99999999999997</ele><time>2026-04-11T14:35:26Z</time></trkpt><trkpt lat="41.97620046890102" lon="12.160781593043884"><ele>129.0</ele><time>2026-04-11T14:35:31Z</time></trkpt><trkpt lat="41.97614493294656" lon="12.160712396169378"><ele>129.0</ele><time>2026-04-11T14:35:37Z</time></trkpt><trkpt lat="41.97608015359501" lon="12.160698637443618"><ele>129.0</ele><time>2026-04-11T14:35:41Z</time></trkpt><trkpt lat="41.97603734237785" lon="12.160776162859426"><ele>129.0</ele><time>2026-04-11T14:35:45Z</time></trkpt><trkpt lat="41.976046167460105" lon="12.160860988205801"><ele>128.99999999999997</ele><time>2026-04-11T14:35:48Z</time></trkpt><trkpt lat="41.97609486092028" lon="12.16094173847685"><ele>129.0</ele><time>2026-04-11T14:35:52Z</time></trkpt><trkpt lat="41.97615743964148" lon="12.161007774231226"><ele>129.7142857142857</ele><time>2026-04-11T14:35:55.999Z</time></trkpt><trkpt lat="41.97621094995049" lon="12.161058862979365"><ele>130.42857142857142</ele><time>2026-04-11T14:35:59.999Z</time></trkpt><trkpt lat="41.97625503440658" lon="12.16113822168363"><ele>131.14285714285714</ele><time>2026-04-11T14:36:04.999Z</time></trkpt><trkpt lat="41.97630272841864" lon="12.1612219971411"><ele>131.85714285714283</ele><time>2026-04-11T14:36:13.999Z</time></trkpt><trkpt lat="41.976368566434154" lon="12.16127015305964"><ele>132.57142857142856</ele><time>2026-04-11T14:36:18.999Z</time></trkpt><trkpt lat="41.97643870942211" lon="12.161234071314682"><ele>133.28571428571428</ele><time>2026-04-11T14:37:22Z</time></trkpt><trkpt lat="41.976462467648645" lon="12.161141669480607"><ele>134.0</ele><time>2026-04-11T14:37:26Z</time></trkpt><trkpt lat="41.9764253628144" lon="12.161053034090626"><ele>134.0</ele><time>2026-04-11T14:37:30Z</time></trkpt><trkpt lat="41.976371295269296" lon="12.160989834170739"><ele>134.0</ele><time>2026-04-11T14:37:46Z</time></trkpt><trkpt lat="41.97645080691837" lon="12.160966416105301"><ele>134.0</ele><time>2026-04-11T14:38:00.999Z</time></trkpt><trkpt lat="41.97652381863067" lon="12.160997579110038"><ele>134.0</ele><time>2026-04-11T14:38:09.999Z</time></trkpt><trkpt lat="41.97659537347226" lon="12.161017540316292"><ele>134.0</ele><time>2026-04-11T14:38:15.999Z</time></trkpt><trkpt lat="41.97661239479949" lon="12.160930610896886"><ele>134.0</ele><time>2026-04-11T14:38:19.999Z</time></trkpt><trkpt lat="41.9765528836751" lon="12.16087685185237"><ele>134.0</ele><time>2026-04-11T14:38:23.999Z</time></trkpt><trkpt lat="41.976497541940354" lon="12.160811302053874"><ele>134.0</ele><time>2026-04-11T14:38:28.999Z</time></trkpt><trkpt lat="41.97645409740993" lon="12.160732542977762"><ele>134.0</ele><time>2026-04-11T14:38:33.999Z</time></trkpt><trkpt lat="41.97643199927841" lon="12.160596061760884"><ele>134.0</ele><time>2026-04-11T14:39:28Z</time></trkpt><trkpt lat="41.97643714418121" lon="12.160491724670674"><ele>134.0</ele><time>2026-04-11T14:39:30Z</time></trkpt><trkpt lat="41.97645900862262" lon="12.160379565632098"><ele>134.0</ele><time>2026-04-11T14:39:33Z</time></trkpt><trkpt lat="41.97649401091389" lon="12.160290872771146"><ele>134.0</ele><time>2026-04-11T14:39:38Z</time></trkpt><trkpt lat="41.97653009431216" lon="12.16021621685121"><ele>133.28571428571428</ele><time>2026-04-11T14:39:42Z</time></trkpt><trkpt lat="41.97659275320716" lon="12.160172049271052"><ele>132.57142857142856</ele><time>2026-04-11T14:39:56.999Z</time></trkpt><trkpt lat="41.97662602208553" lon="12.160250627501926"><ele>131.85714285714283</ele><time>2026-04-11T14:40:01.999Z</time></trkpt><trkpt lat="41.97660384650473" lon="12.160342673019121"><ele>131.14285714285714</ele><time>2026-04-11T14:40:05.999Z</time></trkpt><trkpt lat="41.97660267588682" lon="12.160439283945381"><ele>130.42857142857142</ele><time>2026-04-11T14:40:08.999Z</time></trkpt><trkpt lat="41.97664559942232" lon="12.160509969951306"><ele>129.7142857142857</ele><time>2026-04-11T14:40:11.999Z</time></trkpt><trkpt lat="41.97671191760714" lon="12.160491300164859"><ele>129.0</ele><time>2026-04-11T14:40:15.999Z</time></trkpt><trkpt lat="41.97674932632328" lon="12.160413732815018"><ele>128.5</ele><time>2026-04-11T14:40:19.999Z</time></trkpt><trkpt lat="41.97675288253133" lon="12.16030234297207"><ele>128.0</ele><time>2026-04-11T14:40:22.999Z</time></trkpt><trkpt lat="41.976764986152084" lon="12.160211469780364"><ele>127.5</ele><time>2026-04-11T14:40:24.999Z</time></trkpt><trkpt lat="41.97677154437012" lon="12.160098213604057"><ele>127.0</ele><time>2026-04-11T14:40:27.999Z</time></trkpt><trkpt lat="41.97680930896908" lon="12.159996904148898"><ele>126.5</ele><time>2026-04-11T14:40:30.999Z</time></trkpt><trkpt lat="41.976897164960995" lon="12.159978587917402"><ele>126.0</ele><time>2026-04-11T14:40:33.999Z</time></trkpt><trkpt lat="41.976976529016405" lon="12.15996861025397"><ele>126.0</ele><time>2026-04-11T14:40:37.999Z</time></trkpt><trkpt lat="41.97703393378391" lon="12.160020139135414"><ele>126.0</ele><time>2026-04-11T14:40:41.999Z</time></trkpt><trkpt lat="41.977085373740856" lon="12.16008897250493"><ele>126.0</ele><time>2026-04-11T14:40:44.999Z</time></trkpt><trkpt lat="41.97709011499412" lon="12.160182224043172"><ele>126.0</ele><time>2026-04-11T14:40:48.999Z</time></trkpt><trkpt lat="41.977036469898906" lon="12.160245096478146"><ele>126.0</ele><time>2026-04-11T14:40:56.999Z</time></trkpt><trkpt lat="41.976960324360164" lon="12.160254139004792"><ele>126.0</ele><time>2026-04-11T14:41:02Z</time></trkpt><trkpt lat="41.97689073008769" lon="12.160327899724395"><ele>126.0</ele><time>2026-04-11T14:41:13Z</time></trkpt><trkpt lat="41.97684908693805" lon="12.160395474777228"><ele>126.0</ele><time>2026-04-11T14:41:34Z</time></trkpt><trkpt lat="41.976800543164295" lon="12.160502374915557"><ele>126.0</ele><time>2026-04-11T14:41:37Z</time></trkpt><trkpt lat="41.97675678775029" lon="12.160580664389123"><ele>126.0</ele><time>2026-04-11T14:41:39Z</time></trkpt><trkpt lat="41.97675640689893" lon="12.160675504541471"><ele>126.0</ele><time>2026-04-11T14:41:42Z</time></trkpt><trkpt lat="41.9767284682924" lon="12.160751774719726"><ele>126.0</ele><time>2026-04-11T14:41:45.999Z</time></trkpt><trkpt lat="41.976718383671574" lon="12.16085188985275"><ele>126.0</ele><time>2026-04-11T14:41:50.999Z</time></trkpt><trkpt lat="41.97675523297193" lon="12.160945416345788"><ele>126.0</ele><time>2026-04-11T14:41:54.999Z</time></trkpt><trkpt lat="41.97683271248996" lon="12.160916800315004"><ele>126.0</ele><time>2026-04-11T14:41:58.999Z</time></trkpt><trkpt lat="41.97687575105421" lon="12.160839074803645"><ele>126.0</ele><time>2026-04-11T14:42:02.999Z</time></trkpt><trkpt lat="41.976900564161504" lon="12.160754476745003"><ele>126.0</ele><time>2026-04-11T14:42:05.999Z</time></trkpt><trkpt lat="41.976936049477395" lon="12.160624280916279"><ele>126.0</ele><time>2026-04-11T14:42:08.999Z</time></trkpt><trkpt lat="41.976979504626556" lon="12.160510680739737"><ele>126.0</ele><time>2026-04-11T14:42:11.999Z</time></trkpt><trkpt lat="41.97702104753044" lon="12.160441350374672"><ele>126.0</ele><time>2026-04-11T14:42:13.999Z</time></trkpt><trkpt lat="41.97708117193916" lon="12.160411116300919"><ele>126.0</ele><time>2026-04-11T14:42:15.999Z</time></trkpt><trkpt lat="41.97712333301276" lon="12.160345395456199"><ele>126.0</ele><time>2026-04-11T14:43:12Z</time></trkpt><trkpt lat="41.97719639022214" lon="12.160345818614848"><ele>126.0</ele><time>2026-04-11T14:43:17Z</time></trkpt><trkpt lat="41.977277396315316" lon="12.160374024906563"><ele>126.0</ele><time>2026-04-11T14:43:21Z</time></trkpt><trkpt lat="41.97734044154769" lon="12.160399527836425"><ele>126.0</ele><time>2026-04-11T14:43:25Z</time></trkpt><trkpt lat="41.97740812690377" lon="12.160414109489047"><ele>126.0</ele><time>2026-04-11T14:43:29Z</time></trkpt><trkpt lat="41.97744631955098" lon="12.160482502931947"><ele>126.0</ele><time>2026-04-11T14:43:33Z</time></trkpt><trkpt lat="41.977388030796945" lon="12.16053961280194"><ele>126.0</ele><time>2026-04-11T14:43:38Z</time></trkpt><trkpt lat="41.97731161366269" lon="12.160517591283922"><ele>126.0</ele><time>2026-04-11T14:43:42Z</time></trkpt><trkpt lat="41.97723838707555" lon="12.160521713029004"><ele>126.0</ele><time>2026-04-11T14:43:45Z</time></trkpt><trkpt lat="41.97718158616285" lon="12.160563043485602"><ele>126.0</ele><time>2026-04-11T14:43:49Z</time></trkpt><trkpt lat="41.97722380594316" lon="12.160641731484734"><ele>126.0</ele><time>2026-04-11T14:43:53Z</time></trkpt><trkpt lat="41.97730030793623" lon="12.160673841254207"><ele>126.0</ele><time>2026-04-11T14:43:57Z</time></trkpt><trkpt lat="41.9773686795732" lon="12.160690378835945"><ele>126.0</ele><time>2026-04-11T14:44:01Z</time></trkpt><trkpt lat="41.977436549119524" lon="12.160682412847418"><ele>126.0</ele><time>2026-04-11T14:44:04.999Z</time></trkpt><trkpt lat="41.97750696010699" lon="12.16067128317447"><ele>126.0</ele><time>2026-04-11T14:44:08.999Z</time></trkpt><trkpt lat="41.97755133461072" lon="12.160599600647485"><ele>126.0</ele><time>2026-04-11T14:44:12.999Z</time></trkpt><trkpt lat="41.97758015315114" lon="12.160511987603451"><ele>126.0</ele><time>2026-04-11T14:44:16.999Z</time></trkpt><trkpt lat="41.97758553305158" lon="12.160407972534697"><ele>126.0</ele><time>2026-04-11T14:44:20.999Z</time></trkpt><trkpt lat="41.97758344489581" lon="12.160316898469926"><ele>126.0</ele><time>2026-04-11T14:44:24.999Z</time></trkpt><trkpt lat="41.97762938223814" lon="12.160237264169393"><ele>126.42857142857143</ele><time>2026-04-11T14:44:28.999Z</time></trkpt><trkpt lat="41.97769755800978" lon="12.160217014297782"><ele>126.85714285714286</ele><time>2026-04-11T14:44:32.999Z</time></trkpt><trkpt lat="41.977763695378556" lon="12.160263961397227"><ele>127.28571428571428</ele><time>2026-04-11T14:44:37.999Z</time></trkpt><trkpt lat="41.97779580082072" lon="12.160337767080375"><ele>127.71428571428571</ele><time>2026-04-11T14:44:41.999Z</time></trkpt><trkpt lat="41.97780965948722" lon="12.160424925025477"><ele>128.14285714285714</ele><time>2026-04-11T14:44:45.999Z</time></trkpt><trkpt lat="41.977789856615914" lon="12.160507432126089"><ele>128.57142857142856</ele><time>2026-04-11T14:44:49.999Z</time></trkpt><trkpt lat="41.97774838021533" lon="12.160574855639412"><ele>129.0</ele><time>2026-04-11T14:44:53.999Z</time></trkpt><trkpt lat="41.97770220817533" lon="12.160650022259963"><ele>128.99999999999997</ele><time>2026-04-11T14:44:57.999Z</time></trkpt><trkpt lat="41.97763450953615" lon="12.16069746908942"><ele>129.0</ele><time>2026-04-11T14:45:01.999Z</time></trkpt><trkpt lat="41.97757192583286" lon="12.160728800046765"><ele>129.0</ele><time>2026-04-11T14:45:05.999Z</time></trkpt><trkpt lat="41.977512701765235" lon="12.16075948794505"><ele>129.0</ele><time>2026-04-11T14:45:10Z</time></trkpt><trkpt lat="41.97745016152146" lon="12.1608040428965"><ele>129.0</ele><time>2026-04-11T14:45:14Z</time></trkpt><trkpt lat="41.97740297976166" lon="12.16086838004971"><ele>128.99999999999997</ele><time>2026-04-11T14:45:18Z</time></trkpt><trkpt lat="41.97738143704243" lon="12.160971958585154"><ele>129.0</ele><time>2026-04-11T14:45:23Z</time></trkpt><trkpt lat="41.97739920624068" lon="12.161069388766531"><ele>129.42857142857142</ele><time>2026-04-11T14:45:27Z</time></trkpt><trkpt lat="41.97743969965399" lon="12.16113860497204"><ele>129.85714285714286</ele><time>2026-04-11T14:45:31Z</time></trkpt><trkpt lat="41.977481993603" lon="12.161203477093677"><ele>130.28571428571428</ele><time>2026-04-11T14:45:35Z</time></trkpt><trkpt lat="41.9775167981121" lon="12.161293383651055"><ele>130.71428571428572</ele><time>2026-04-11T14:45:39Z</time></trkpt><trkpt lat="41.97752618219211" lon="12.161395186846523"><ele>131.14285714285714</ele><time>2026-04-11T14:45:44Z</time></trkpt><trkpt lat="41.977497662863264" lon="12.1614733568276"><ele>131.57142857142856</ele><time>2026-04-11T14:45:48Z</time></trkpt><trkpt lat="41.97747765689076" lon="12.161561078120654"><ele>132.0</ele><time>2026-04-11T14:45:52Z</time></trkpt><trkpt lat="41.977428657671034" lon="12.16163409069709"><ele>132.0</ele><time>2026-04-11T14:45:57Z</time></trkpt><trkpt lat="41.97738773505747" lon="12.161558372956907"><ele>132.0</ele><time>2026-04-11T14:46:02Z</time></trkpt><trkpt lat="41.977413884454954" lon="12.161471901039283"><ele>132.0</ele><time>2026-04-11T14:46:06Z</time></trkpt><trkpt lat="41.97742351426394" lon="12.161385862575715"><ele>132.0</ele><time>2026-04-11T14:46:08.999Z</time></trkpt><trkpt lat="41.97736322011038" lon="12.161319179473695"><ele>132.0</ele><time>2026-04-11T14:46:12.999Z</time></trkpt><trkpt lat="41.9772972215291" lon="12.16134695665681"><ele>132.0</ele><time>2026-04-11T14:46:15.999Z</time></trkpt><trkpt lat="41.9772516935258" lon="12.161429284928587"><ele>132.0</ele><time>2026-04-11T14:46:19.999Z</time></trkpt><trkpt lat="41.977229128380436" lon="12.161521942427935"><ele>132.71428571428572</ele><time>2026-04-11T14:46:23.999Z</time></trkpt><trkpt lat="41.97722662806523" lon="12.16160923716265"><ele>133.42857142857144</ele><time>2026-04-11T14:46:27.999Z</time></trkpt><trkpt lat="41.977239698645434" lon="12.161703999572499"><ele>134.14285714285717</ele><time>2026-04-11T14:46:31.999Z</time></trkpt><trkpt lat="41.977284979293884" lon="12.161789791003665"><ele>134.85714285714286</ele><time>2026-04-11T14:46:35.999Z</time></trkpt><trkpt lat="41.97730077079435" lon="12.161890006155664"><ele>135.57142857142858</ele><time>2026-04-11T14:46:39.999Z</time></trkpt><trkpt lat="41.97732302311839" lon="12.161982055494091"><ele>136.2857142857143</ele><time>2026-04-11T14:46:43.999Z</time></trkpt><trkpt lat="41.97731799312118" lon="12.16208859560498"><ele>137.0</ele><time>2026-04-11T14:46:48.999Z</time></trkpt><trkpt lat="41.97730730674001" lon="12.162192174622703"><ele>137.00000000000003</ele><time>2026-04-11T14:46:53.999Z</time></trkpt><trkpt lat="41.97726215964229" lon="12.162266164947807"><ele>137.0</ele><time>2026-04-11T14:46:57.999Z</time></trkpt><trkpt lat="41.977241641890096" lon="12.162348601410379"><ele>137.0</ele><time>2026-04-11T14:47:01.999Z</time></trkpt><trkpt lat="41.97721076718151" lon="12.162423154765479"><ele>137.0</ele><time>2026-04-11T14:47:05.999Z</time></trkpt><trkpt lat="41.97717346802699" lon="12.162504585490217"><ele>137.0</ele><time>2026-04-11T14:47:17Z</time></trkpt><trkpt lat="41.977103713371825" lon="12.162543084879538"><ele>137.00000000000003</ele><time>2026-04-11T14:47:23Z</time></trkpt><trkpt lat="41.97703230706402" lon="12.162559727318738"><ele>137.0</ele><time>2026-04-11T14:47:27Z</time></trkpt><trkpt lat="41.97694624676263" lon="12.162516304147918"><ele>137.0</ele><time>2026-04-11T14:47:31Z</time></trkpt><trkpt lat="41.9769003636193" lon="12.162450804441754"><ele>137.0</ele><time>2026-04-11T14:47:36Z</time></trkpt><trkpt lat="41.97689091423119" lon="12.162337842666714"><ele>137.0</ele><time>2026-04-11T14:47:39Z</time></trkpt><trkpt lat="41.976932464656265" lon="12.162265698879985"><ele>137.0</ele><time>2026-04-11T14:47:42Z</time></trkpt><trkpt lat="41.977006674462864" lon="12.162198783133015"><ele>137.0</ele><time>2026-04-11T14:47:47Z</time></trkpt><trkpt lat="41.97707335311198" lon="12.162174848523918"><ele>137.0</ele><time>2026-04-11T14:47:51Z</time></trkpt><trkpt lat="41.97713979745993" lon="12.162125460869655"><ele>137.00000000000003</ele><time>2026-04-11T14:47:56Z</time></trkpt><trkpt lat="41.9771815571012" lon="12.162047676115865"><ele>137.0</ele><time>2026-04-11T14:48:00Z</time></trkpt><trkpt lat="41.977180110396255" lon="12.161946092871297"><ele>137.0</ele><time>2026-04-11T14:48:04Z</time></trkpt><trkpt lat="41.97716541104931" lon="12.161859125867794"><ele>137.0</ele><time>2026-04-11T14:48:07.999Z</time></trkpt><trkpt lat="41.97713754941953" lon="12.16178250704086"><ele>137.0</ele><time>2026-04-11T14:48:10.999Z</time></trkpt><trkpt lat="41.97710163191972" lon="12.161686908553405"><ele>137.00000000000003</ele><time>2026-04-11T14:48:14.999Z</time></trkpt><trkpt lat="41.97708752804352" lon="12.161602629234208"><ele>137.0</ele><time>2026-04-11T14:48:19.999Z</time></trkpt><trkpt lat="41.977116932737445" lon="12.161517400639744"><ele>136.2857142857143</ele><time>2026-04-11T14:48:35.999Z</time></trkpt><trkpt lat="41.97713340512355" lon="12.161427100737127"><ele>135.57142857142858</ele><time>2026-04-11T14:48:39.999Z</time></trkpt><trkpt lat="41.977176926905706" lon="12.161329641007747"><ele>134.85714285714286</ele><time>2026-04-11T14:48:43.999Z</time></trkpt><trkpt lat="41.977206787911264" lon="12.161229574362322"><ele>134.14285714285717</ele><time>2026-04-11T14:48:47.999Z</time></trkpt><trkpt lat="41.97723264006028" lon="12.161134485164578"><ele>133.42857142857144</ele><time>2026-04-11T14:48:51.999Z</time></trkpt><trkpt lat="41.97725736043553" lon="12.161045756068106"><ele>132.71428571428572</ele><time>2026-04-11T14:48:55.999Z</time></trkpt><trkpt lat="41.97726747026142" lon="12.160957191524755"><ele>132.0</ele><time>2026-04-11T14:48:59.999Z</time></trkpt><trkpt lat="41.97726034794431" lon="12.160871792570553"><ele>132.0</ele><time>2026-04-11T14:49:02.999Z</time></trkpt><trkpt lat="41.977216723463464" lon="12.160793523163747"><ele>132.0</ele><time>2026-04-11T14:49:06.999Z</time></trkpt><trkpt lat="41.97714070683453" lon="12.160752814021594"><ele>132.0</ele><time>2026-04-11T14:49:11.999Z</time></trkpt><trkpt lat="41.97707964991055" lon="12.160781963691543"><ele>132.0</ele><time>2026-04-11T14:49:15.999Z</time></trkpt><trkpt lat="41.97703374699958" lon="12.160847348820052"><ele>132.0</ele><time>2026-04-11T14:49:19.999Z</time></trkpt><trkpt lat="41.977000133051384" lon="12.160923869193352"><ele>132.0</ele><time>2026-04-11T14:49:24Z</time></trkpt><trkpt lat="41.976959544325716" lon="12.160990657709158"><ele>132.0</ele><time>2026-04-11T14:49:28Z</time></trkpt><trkpt lat="41.97693234593492" lon="12.161087088376492"><ele>132.0</ele><time>2026-04-11T14:49:33Z</time></trkpt><trkpt lat="41.97692398079886" lon="12.161175313552935"><ele>132.0</ele><time>2026-04-11T14:49:38Z</time></trkpt><trkpt lat="41.97691022922563" lon="12.161264675917973"><ele>132.0</ele><time>2026-04-11T14:49:43Z</time></trkpt><trkpt lat="41.976892994145025" lon="12.161360076913288"><ele>132.0</ele><time>2026-04-11T14:49:49Z</time></trkpt><trkpt lat="41.976860586966666" lon="12.161449086230359"><ele>132.0</ele><time>2026-04-11T14:49:55Z</time></trkpt><trkpt lat="41.976840186714526" lon="12.16154147958376"><ele>132.0</ele><time>2026-04-11T14:50:00Z</time></trkpt><trkpt lat="41.97681819956302" lon="12.161621574829216"><ele>132.0</ele><time>2026-04-11T14:50:05Z</time></trkpt><trkpt lat="41.976749031127305" lon="12.161663503435372"><ele>132.0</ele><time>2026-04-11T14:50:10Z</time></trkpt><trkpt lat="41.976693313605296" lon="12.161703855178915"><ele>132.0</ele><time>2026-04-11T14:50:14Z</time></trkpt><trkpt lat="41.976620271056845" lon="12.161690371036928"><ele>132.0</ele><time>2026-04-11T14:50:17.999Z</time></trkpt><trkpt lat="41.97658310702224" lon="12.161615193179971"><ele>132.0</ele><time>2026-04-11T14:50:22.999Z</time></trkpt><trkpt lat="41.976648890018026" lon="12.161566427211039"><ele>132.0</ele><time>2026-04-11T14:50:26.999Z</time></trkpt><trkpt lat="41.976727630986765" lon="12.161568061715641"><ele>132.0</ele><time>2026-04-11T14:50:30.999Z</time></trkpt><trkpt lat="41.97678700828022" lon="12.161500535829695"><ele>132.0</ele><time>2026-04-11T14:50:34.999Z</time></trkpt><trkpt lat="41.97683559355855" lon="12.16140368133205"><ele>132.0</ele><time>2026-04-11T14:50:44.999Z</time></trkpt><trkpt lat="41.97686165301625" lon="12.161325410246265"><ele>132.0</ele><time>2026-04-11T14:50:48.999Z</time></trkpt><trkpt lat="41.9768757194643" lon="12.161226380258734"><ele>132.0</ele><time>2026-04-11T14:50:52.999Z</time></trkpt><trkpt lat="41.976823910694826" lon="12.161123004648301"><ele>132.0</ele><time>2026-04-11T14:50:56.999Z</time></trkpt><trkpt lat="41.97675828396383" lon="12.161102681905305"><ele>132.0</ele><time>2026-04-11T14:50:59.999Z</time></trkpt><trkpt lat="41.97669255436759" lon="12.161168941587373"><ele>132.0</ele><time>2026-04-11T14:51:03.999Z</time></trkpt><trkpt lat="41.97665340172161" lon="12.161237512764664"><ele>132.0</ele><time>2026-04-11T14:51:07.999Z</time></trkpt><trkpt lat="41.976617994825986" lon="12.161334026343935"><ele>132.28571428571428</ele><time>2026-04-11T14:51:11.999Z</time></trkpt><trkpt lat="41.976572494206586" lon="12.16139744226437"><ele>132.57142857142858</ele><time>2026-04-11T14:51:15.999Z</time></trkpt><trkpt lat="41.976507394692796" lon="12.161450055731928"><ele>132.85714285714286</ele><time>2026-04-11T14:51:20.999Z</time></trkpt><trkpt lat="41.97644690763593" lon="12.161520174842343"><ele>133.14285714285714</ele><time>2026-04-11T14:51:25.999Z</time></trkpt><trkpt lat="41.97636204608501" lon="12.16151830087046"><ele>133.42857142857142</ele><time>2026-04-11T14:51:40Z</time></trkpt><trkpt lat="41.97629754999255" lon="12.161507752827145"><ele>133.71428571428572</ele><time>2026-04-11T14:51:44Z</time></trkpt><trkpt lat="41.97628077319995" lon="12.161423315378016"><ele>134.0</ele><time>2026-04-11T14:51:49Z</time></trkpt><trkpt lat="41.97631641975507" lon="12.16134882393636"><ele>134.0</ele><time>2026-04-11T14:51:53Z</time></trkpt><trkpt lat="41.976247416029764" lon="12.161278183531792"><ele>134.0</ele><time>2026-04-11T14:52:13Z</time></trkpt><trkpt lat="41.976176721217946" lon="12.161226088235976"><ele>134.0</ele><time>2026-04-11T14:52:14.999Z</time></trkpt><trkpt lat="41.97610931818651" lon="12.16122818251662"><ele>134.0</ele><time>2026-04-11T14:52:16.999Z</time></trkpt><trkpt lat="41.9760350572831" lon="12.16124719613574"><ele>134.0</ele><time>2026-04-11T14:52:19.999Z</time></trkpt><trkpt lat="41.975958550602165" lon="12.161204804751675"><ele>134.0</ele><time>2026-04-11T14:52:22.999Z</time></trkpt><trkpt lat="41.97587697319491" lon="12.161159083045572"><ele>134.0</ele><time>2026-04-11T14:52:24.999Z</time></trkpt><trkpt lat="41.97581246733961" lon="12.161144775614556"><ele>134.0</ele><time>2026-04-11T14:52:26.999Z</time></trkpt><trkpt lat="41.975732461238444" lon="12.16110721351531"><ele>134.0</ele><time>2026-04-11T14:52:29.999Z</time></trkpt><trkpt lat="41.97566284841262" lon="12.161064914734332"><ele>134.0</ele><time>2026-04-11T14:52:32.999Z</time></trkpt><trkpt lat="41.97567576585673" lon="12.160981644100255"><ele>134.0</ele><time>2026-04-11T14:52:38.999Z</time></trkpt><trkpt lat="41.97574201046271" lon="12.160991980631623"><ele>134.0</ele><time>2026-04-11T14:52:41.999Z</time></trkpt><trkpt lat="41.97580853890343" lon="12.161053550912971"><ele>134.0</ele><time>2026-04-11T14:52:45.999Z</time></trkpt><trkpt lat="41.975875647481075" lon="12.16108723100267"><ele>134.0</ele><time>2026-04-11T14:52:49.999Z</time></trkpt><trkpt lat="41.97594364908206" lon="12.161082210063615"><ele>134.0</ele><time>2026-04-11T14:52:53.999Z</time></trkpt><trkpt lat="41.975959220029225" lon="12.160948655183246"><ele>134.0</ele><time>2026-04-11T14:52:56.999Z</time></trkpt><trkpt lat="41.97589385834305" lon="12.160911835917773"><ele>134.0</ele><time>2026-04-11T14:53:00.999Z</time></trkpt><trkpt lat="41.975830004651016" lon="12.160873126403429"><ele>134.0</ele><time>2026-04-11T14:53:04.999Z</time></trkpt><trkpt lat="41.9757674372393" lon="12.16084653059824"><ele>134.0</ele><time>2026-04-11T14:53:08.999Z</time></trkpt><trkpt lat="41.97569183272521" lon="12.160815875043573"><ele>133.71428571428572</ele><time>2026-04-11T14:53:12.999Z</time></trkpt><trkpt lat="41.97561742981189" lon="12.160829123945119"><ele>133.42857142857142</ele><time>2026-04-11T14:53:16.999Z</time></trkpt><trkpt lat="41.97554541029913" lon="12.160832355371769"><ele>133.14285714285714</ele><time>2026-04-11T14:53:20.999Z</time></trkpt><trkpt lat="41.97547940316572" lon="12.160829818047485"><ele>132.85714285714286</ele><time>2026-04-11T14:53:24.999Z</time></trkpt><trkpt lat="41.9754153278022" lon="12.16078755440939"><ele>132.57142857142858</ele><time>2026-04-11T14:53:30.998Z</time></trkpt><trkpt lat="41.97546833929531" lon="12.160724376714265"><ele>132.28571428571428</ele><time>2026-04-11T14:53:34Z</time></trkpt><trkpt lat="41.97552951647202" lon="12.160699559891809"><ele>132.0</ele><time>2026-04-11T14:53:38Z</time></trkpt><trkpt lat="41.97561080217853" lon="12.160736006318137"><ele>132.0</ele><time>2026-04-11T14:53:43Z</time></trkpt><trkpt lat="41.975693099594686" lon="12.160740027962051"><ele>132.0</ele><time>2026-04-11T14:53:51Z</time></trkpt><trkpt lat="41.975700524388586" lon="12.160655255668463"><ele>132.0</ele><time>2026-04-11T14:53:55Z</time></trkpt><trkpt lat="41.97563226053155" lon="12.160606431113184"><ele>132.0</ele><time>2026-04-11T14:53:59Z</time></trkpt><trkpt lat="41.97556009367656" lon="12.160575751595575"><ele>132.0</ele><time>2026-04-11T14:54:04Z</time></trkpt><trkpt lat="41.975528571363746" lon="12.160456243664088"><ele>132.0</ele><time>2026-04-11T14:54:27.999Z</time></trkpt><trkpt lat="41.97549656458394" lon="12.16037746370946"><ele>131.33333333333334</ele><time>2026-04-11T14:54:34.999Z</time></trkpt><trkpt lat="41.97546568031355" lon="12.160286869265224"><ele>130.66666666666666</ele><time>2026-04-11T14:54:40.999Z</time></trkpt><trkpt lat="41.97540228719585" lon="12.160239926937168"><ele>130.0</ele><time>2026-04-11T14:54:45.999Z</time></trkpt><trkpt lat="41.975336871770196" lon="12.160208869015673"><ele>129.33333333333331</ele><time>2026-04-11T14:54:50.999Z</time></trkpt><trkpt lat="41.97527358943207" lon="12.160198970272157"><ele>128.66666666666666</ele><time>2026-04-11T14:54:56.999Z</time></trkpt><trkpt lat="41.97515647092376" lon="12.160191144957098"><ele>128.0</ele><time>2026-04-11T14:55:26.999Z</time></trkpt><trkpt lat="41.97509303563553" lon="12.160188741326204"><ele>128.0</ele><time>2026-04-11T14:55:33.999Z</time></trkpt><trkpt lat="41.9750320514483" lon="12.160212088176893"><ele>127.99999999999999</ele><time>2026-04-11T14:55:38.998Z</time></trkpt><trkpt lat="41.97499096844384" lon="12.160285855827436"><ele>128.0</ele><time>2026-04-11T14:55:45Z</time></trkpt><trkpt lat="41.97495970912487" lon="12.160370313791073"><ele>128.0</ele><time>2026-04-11T14:55:50Z</time></trkpt><trkpt lat="41.97492547045328" lon="12.160445452727176"><ele>127.99999999999999</ele><time>2026-04-11T14:55:55Z</time></trkpt><trkpt lat="41.97489083726974" lon="12.160517367230117"><ele>128.0</ele><time>2026-04-11T14:56:00Z</time></trkpt><trkpt lat="41.97482710060016" lon="12.160565383401593"><ele>128.0</ele><time>2026-04-11T14:56:06Z</time></trkpt><trkpt lat="41.97475591662004" lon="12.16058062120811"><ele>127.0</ele><time>2026-04-11T14:56:12Z</time></trkpt><trkpt lat="41.97468072682042" lon="12.16057807339579"><ele>127.0</ele><time>2026-04-11T14:56:18Z</time></trkpt><trkpt lat="41.97460922038508" lon="12.160557936868218"><ele>127.0</ele><time>2026-04-11T14:56:24Z</time></trkpt><trkpt lat="41.97454074695968" lon="12.160540458768725"><ele>127.0</ele><time>2026-04-11T14:56:30Z</time></trkpt><trkpt lat="41.97447163443652" lon="12.16052789702572"><ele>127.0</ele><time>2026-04-11T14:56:35.999Z</time></trkpt><trkpt lat="41.97440606871245" lon="12.160540580470409"><ele>127.0</ele><time>2026-04-11T14:57:48Z</time></trkpt></trkseg></trk></gpx>